British Envoy — MNAN4 — position and weather

sailwx.info

Track history (hours):
 
Tides and Currents Weather Stations Pressure Air Temp Water Temp Dewpoint Dewpoint Depression Visibility Wind Speed Wind Dir Waves Ship Positions

British Envoy

Last reported at 2014-Jul-31 19:28 UTC. Time now 2014-Aug-02 08:42 UTC.
Position S 29°53' E 031°02'.

Length 184.2 m; beam 27.4 m; draft 11.3 m.

Type: Tanker. MMSI: 235011280.

Date/timePositionNaut miles runAvg speedWind from/ knotsBaromVisibWave heightAir tempDewpointWater temp
2014-Jul-31 19:28S 29°53' E 031°02'4 4.6
2014-Jul-31 18:34S 29°50' E 031°05'3 3.1
2014-Jul-31 17:34S 29°48' E 031°08'1 0.6
2014-Jul-31 16:33S 29°49' E 031°08'1 1.2
2014-Jul-31 15:34S 29°48' E 031°08'0 0.2
2014-Jul-31 14:33S 29°47' E 031°08'2 1.8
2014-Jul-31 13:33S 29°47' E 031°10'1 1.1
2014-Jul-31 12:29S 29°46' E 031°11'0 0.0
2014-Jul-31 11:29S 29°46' E 031°11'0 0.0
2014-Jul-31 10:29S 29°46' E 031°11'0 0.0
2014-Jul-31 09:29S 29°46' E 031°11'0 0.0
2014-Jul-31 08:29S 29°46' E 031°11'0 0.0
2014-Jul-31 07:29S 29°46' E 031°11'0 0.0
2014-Jul-31 06:29S 29°46' E 031°11'0 0.0
2014-Jul-31 05:29S 29°46' E 031°11'0 0.0
2014-Jul-31 04:29S 29°46' E 031°11'0 0.0
2014-Jul-31 03:29S 29°46' E 031°11'0 0.0
2014-Jul-31 02:29S 29°46' E 031°11'0 0.0
2014-Jul-31 01:29S 29°46' E 031°11'0 0.0
2014-Jul-31 00:29S 29°46' E 031°11'0 0.0
2014-Jul-30 23:29S 29°46' E 031°11'0 0.0
2014-Jul-30 22:29S 29°46' E 031°11'0 0.0
2014-Jul-30 21:29S 29°46' E 031°11'0 0.0
2014-Jul-30 20:29S 29°46' E 031°11'0 0.0
2014-Jul-30 19:29S 29°46' E 031°11'0 0.0
2014-Jul-30 18:17S 29°46' E 031°11'0 0.0
2014-Jul-30 17:29S 29°46' E 031°11'0 0.0
2014-Jul-30 16:29S 29°46' E 031°11'0 0.0
2014-Jul-30 15:17S 29°46' E 031°11'0 0.0
2014-Jul-30 14:29S 29°46' E 031°11'0 0.0
2014-Jul-30 13:29S 29°46' E 031°11'0 0.0
2014-Jul-30 12:23S 29°46' E 031°11'0 0.0
2014-Jul-30 11:29S 29°46' E 031°11'0 0.0
2014-Jul-30 10:29S 29°46' E 031°11'2 1.8
2014-Jul-30 09:33S 29°48' E 031°11'1211.6
2014-Jul-30 08:33S 29°59' E 031°09'1313.5
2014-Jul-30 07:33S 30°12' E 031°05'1414.0
2014-Jul-30 06:33S 30°24' E 030°57'1514.6
2014-Jul-30 05:32S 30°37' E 030°48'4514.1
2014-Jul-30 02:21S 31°15' E 030°20'3611.5
2014-Jul-29 23:14S 31°43' E 029°54'1210.3
2014-Jul-29 22:04S 31°52' E 029°45'810.8
2014-Jul-29 21:22S 31°57' E 029°38'17710.2
2014-Jul-29 04:03S 33°53' E 026°60'  
2014-Jul-26 22:20S 35°01' E 019°32'1012.1
2014-Jul-26 21:29S 34°56' E 019°21'1411.9
2014-Jul-26 20:17S 34°51' E 019°05'912.2
2014-Jul-26 19:33S 34°47' E 018°55'1212.1
2014-Jul-26 18:33S 34°42' E 018°42'1311.8
2014-Jul-26 17:28S 34°36' E 018°28'1112.0
2014-Jul-26 16:31S 34°32' E 018°15'1111.8
2014-Jul-26 15:34S 34°26' E 018°04'7 6.6
2014-Jul-26 14:29S 34°18' E 018°04'9 9.9
2014-Jul-26 13:34S 34°11' E 018°10'2110.4
2014-Jul-26 11:33S 33°52' E 018°20'6 6.2
2014-Jul-26 10:34S 33°55' E 018°26'0 0.4
2014-Jul-26 09:33S 33°55' E 018°27'0 0.0
2014-Jul-24 07:33S 33°55' E 018°27'3 3.3
2014-Jul-24 06:33S 33°52' E 018°24'3 2.9
2014-Jul-24 05:33S 33°50' E 018°26'0 0.3
2014-Jul-24 04:32S 33°50' E 018°26'0 0.0
2014-Jul-24 03:29S 33°50' E 018°26'0 0.0
2014-Jul-24 02:32S 33°50' E 018°26'0 0.0
2014-Jul-24 01:32S 33°50' E 018°26'0 0.0
2014-Jul-24 00:32S 33°50' E 018°26'0 0.1
2014-Jul-23 23:32S 33°50' E 018°26'0 0.2
2014-Jul-23 22:32S 33°50' E 018°26'0 0.0
2014-Jul-23 21:33S 33°50' E 018°26'0 0.1
2014-Jul-23 20:33S 33°50' E 018°26'4 3.5
2014-Jul-23 19:33S 33°52' E 018°23'1210.8
2014-Jul-23 18:23S 34°02' E 018°14'1213.4
2014-Jul-23 17:31S 34°12' E 018°07'1313.9
2014-Jul-23 16:33S 34°26' E 018°07'1312.5
2014-Jul-23 15:33S 34°32' E 018°20'1413.4
2014-Jul-23 14:32S 34°38' E 018°35'1313.4
2014-Jul-23 13:34S 34°44' E 018°49'30712.6
2014-Jul-22 13:10S 34°23' E 025°02'  
Track history (hours):
 
Tides and Currents Weather Stations Pressure Air Temp Water Temp Dewpoint Dewpoint Depression Visibility Wind Speed Wind Dir Waves Ship Positions

British Envoy

Last reported at 2014-Jul-31 19:28 UTC. Time now 2014-Aug-02 08:42 UTC.
Position S 29°53' E 031°02'.

Length 184.2 m; beam 27.4 m; draft 11.3 m.

Type: Tanker. MMSI: 235011280.

Date/timePositionNaut miles runAvg speedWind from/ knotsBaromVisibWave heightAir tempDewpointWater temp
2014-Jul-31 19:28S 29°53' E 031°02'4 4.6
2014-Jul-31 18:34S 29°50' E 031°05'3 3.1
2014-Jul-31 17:34S 29°48' E 031°08'1 0.6
2014-Jul-31 16:33S 29°49' E 031°08'1 1.2
2014-Jul-31 15:34S 29°48' E 031°08'0 0.2
2014-Jul-31 14:33S 29°47' E 031°08'2 1.8
2014-Jul-31 13:33S 29°47' E 031°10'1 1.1
2014-Jul-31 12:29S 29°46' E 031°11'0 0.0
2014-Jul-31 11:29S 29°46' E 031°11'0 0.0
2014-Jul-31 10:29S 29°46' E 031°11'0 0.0
2014-Jul-31 09:29S 29°46' E 031°11'0 0.0
2014-Jul-31 08:29S 29°46' E 031°11'0 0.0
2014-Jul-31 07:29S 29°46' E 031°11'0 0.0
2014-Jul-31 06:29S 29°46' E 031°11'0 0.0
2014-Jul-31 05:29S 29°46' E 031°11'0 0.0
2014-Jul-31 04:29S 29°46' E 031°11'0 0.0
2014-Jul-31 03:29S 29°46' E 031°11'0 0.0
2014-Jul-31 02:29S 29°46' E 031°11'0 0.0
2014-Jul-31 01:29S 29°46' E 031°11'0 0.0
2014-Jul-31 00:29S 29°46' E 031°11'0 0.0
2014-Jul-30 23:29S 29°46' E 031°11'0 0.0
2014-Jul-30 22:29S 29°46' E 031°11'0 0.0
2014-Jul-30 21:29S 29°46' E 031°11'0 0.0
2014-Jul-30 20:29S 29°46' E 031°11'0 0.0
2014-Jul-30 19:29S 29°46' E 031°11'0 0.0
2014-Jul-30 18:17S 29°46' E 031°11'0 0.0
2014-Jul-30 17:29S 29°46' E 031°11'0 0.0
2014-Jul-30 16:29S 29°46' E 031°11'0 0.0
2014-Jul-30 15:17S 29°46' E 031°11'0 0.0
2014-Jul-30 14:29S 29°46' E 031°11'0 0.0
2014-Jul-30 13:29S 29°46' E 031°11'0 0.0
2014-Jul-30 12:23S 29°46' E 031°11'0 0.0
2014-Jul-30 11:29S 29°46' E 031°11'0 0.0
2014-Jul-30 10:29S 29°46' E 031°11'2 1.8
2014-Jul-30 09:33S 29°48' E 031°11'1211.6
2014-Jul-30 08:33S 29°59' E 031°09'1313.5
2014-Jul-30 07:33S 30°12' E 031°05'1414.0
2014-Jul-30 06:33S 30°24' E 030°57'1514.6
2014-Jul-30 05:32S 30°37' E 030°48'4514.1
2014-Jul-30 02:21S 31°15' E 030°20'3611.5
2014-Jul-29 23:14S 31°43' E 029°54'1210.3
2014-Jul-29 22:04S 31°52' E 029°45'810.8
2014-Jul-29 21:22S 31°57' E 029°38'17710.2
2014-Jul-29 04:03S 33°53' E 026°60'  
2014-Jul-26 22:20S 35°01' E 019°32'1012.1
2014-Jul-26 21:29S 34°56' E 019°21'1411.9
2014-Jul-26 20:17S 34°51' E 019°05'912.2
2014-Jul-26 19:33S 34°47' E 018°55'1212.1
2014-Jul-26 18:33S 34°42' E 018°42'1311.8
2014-Jul-26 17:28S 34°36' E 018°28'1112.0
2014-Jul-26 16:31S 34°32' E 018°15'1111.8
2014-Jul-26 15:34S 34°26' E 018°04'7 6.6
2014-Jul-26 14:29S 34°18' E 018°04'9 9.9
2014-Jul-26 13:34S 34°11' E 018°10'2110.4
2014-Jul-26 11:33S 33°52' E 018°20'6 6.2
2014-Jul-26 10:34S 33°55' E 018°26'0 0.4
2014-Jul-26 09:33S 33°55' E 018°27'0 0.0
2014-Jul-24 07:33S 33°55' E 018°27'3 3.3
2014-Jul-24 06:33S 33°52' E 018°24'3 2.9
2014-Jul-24 05:33S 33°50' E 018°26'0 0.3
2014-Jul-24 04:32S 33°50' E 018°26'0 0.0
2014-Jul-24 03:29S 33°50' E 018°26'0 0.0
2014-Jul-24 02:32S 33°50' E 018°26'0 0.0
2014-Jul-24 01:32S 33°50' E 018°26'0 0.0
2014-Jul-24 00:32S 33°50' E 018°26'0 0.1
2014-Jul-23 23:32S 33°50' E 018°26'0 0.2
2014-Jul-23 22:32S 33°50' E 018°26'0 0.0
2014-Jul-23 21:33S 33°50' E 018°26'0 0.1
2014-Jul-23 20:33S 33°50' E 018°26'4 3.5
2014-Jul-23 19:33S 33°52' E 018°23'1210.8
2014-Jul-23 18:23S 34°02' E 018°14'1213.4
2014-Jul-23 17:31S 34°12' E 018°07'1313.9
2014-Jul-23 16:33S 34°26' E 018°07'1312.5
2014-Jul-23 15:33S 34°32' E 018°20'1413.4
2014-Jul-23 14:32S 34°38' E 018°35'1313.4
2014-Jul-23 13:34S 34°44' E 018°49'30712.6
2014-Jul-22 13:10S 34°23' E 025°02'  

Dump ship's entire track history